sensor_id;sensor_type;location;lat;lon;timestamp;temperature;humidity
7762;DHT22;3925;48.636;9.516;2022-08-02T00:01:44;18.30;99.90
7762;DHT22;3925;48.636;9.516;2022-08-02T00:04:11;18.30;99.90
7762;DHT22;3925;48.636;9.516;2022-08-02T00:06:38;18.30;99.90
7762;DHT22;3925;48.636;9.516;2022-08-02T00:09:06;18.30;99.90
7762;DHT22;3925;48.636;9.516;2022-08-02T00:11:33;18.20;99.90
7762;DHT22;3925;48.636;9.516;2022-08-02T00:14:00;18.20;99.90
7762;DHT22;3925;48.636;9.516;2022-08-02T00:16:27;18.20;99.90
7762;DHT22;3925;48.636;9.516;2022-08-02T00:18:54;18.10;99.90
7762;DHT22;3925;48.636;9.516;2022-08-02T00:21:21;18.10;99.90
7762;DHT22;3925;48.636;9.516;2022-08-02T00:23:48;18.20;99.90
7762;DHT22;3925;48.636;9.516;2022-08-02T00:26:16;18.10;99.90
7762;DHT22;3925;48.636;9.516;2022-08-02T00:28:43;18.10;99.90
7762;DHT22;3925;48.636;9.516;2022-08-02T00:31:10;18.00;99.90
7762;DHT22;3925;48.636;9.516;2022-08-02T00:33:37;18.00;99.90
7762;DHT22;3925;48.636;9.516;2022-08-02T00:36:04;18.10;99.90
7762;DHT22;3925;48.636;9.516;2022-08-02T00:38:31;18.10;99.90
7762;DHT22;3925;48.636;9.516;2022-08-02T00:40:58;18.00;99.90
7762;DHT22;3925;48.636;9.516;2022-08-02T00:43:26;18.00;99.90
7762;DHT22;3925;48.636;9.516;2022-08-02T00:45:53;18.10;99.90
7762;DHT22;3925;48.636;9.516;2022-08-02T00:48:20;18.10;99.90
7762;DHT22;3925;48.636;9.516;2022-08-02T00:50:47;18.10;99.90
7762;DHT22;3925;48.636;9.516;2022-08-02T00:53:14;18.00;99.90
7762;DHT22;3925;48.636;9.516;2022-08-02T00:55:41;18.00;99.90
7762;DHT22;3925;48.636;9.516;2022-08-02T00:58:08;18.00;99.90
7762;DHT22;3925;48.636;9.516;2022-08-02T01:00:36;18.00;99.90
7762;DHT22;3925;48.636;9.516;2022-08-02T01:03:03;18.00;99.90
7762;DHT22;3925;48.636;9.516;2022-08-02T01:05:30;18.00;99.90
7762;DHT22;3925;48.636;9.516;2022-08-02T01:07:57;18.00;99.90
7762;DHT22;3925;48.636;9.516;2022-08-02T01:10:24;17.90;99.90
7762;DHT22;3925;48.636;9.516;2022-08-02T01:12:51;17.90;99.90
7762;DHT22;3925;48.636;9.516;2022-08-02T01:15:18;17.90;99.90
7762;DHT22;3925;48.636;9.516;2022-08-02T01:17:53;17.90;99.90
7762;DHT22;3925;48.636;9.516;2022-08-02T01:20:40;18.00;99.90
7762;DHT22;3925;48.636;9.516;2022-08-02T01:23:24;18.00;99.90
7762;DHT22;3925;48.636;9.516;2022-08-02T01:26:07;18.00;99.90
7762;DHT22;3925;48.636;9.516;2022-08-02T01:28:40;17.90;99.90
7762;DHT22;3925;48.636;9.516;2022-08-02T01:31:20;18.00;99.90
7762;DHT22;3925;48.636;9.516;2022-08-02T01:33:57;17.90;99.90
7762;DHT22;3925;48.636;9.516;2022-08-02T01:36:25;17.90;99.90
7762;DHT22;3925;48.636;9.516;2022-08-02T01:38:56;17.70;99.90
7762;DHT22;3925;48.636;9.516;2022-08-02T01:41:25;17.50;99.90
7762;DHT22;3925;48.636;9.516;2022-08-02T01:43:57;17.30;99.90
7762;DHT22;3925;48.636;9.516;2022-08-02T01:46:27;17.30;99.90
7762;DHT22;3925;48.636;9.516;2022-08-02T01:48:56;17.40;99.90
7762;DHT22;3925;48.636;9.516;2022-08-02T01:51:26;17.40;99.90
7762;DHT22;3925;48.636;9.516;2022-08-02T01:54:14;17.40;99.90
7762;DHT22;3925;48.636;9.516;2022-08-02T01:56:42;17.40;99.90
7762;DHT22;3925;48.636;9.516;2022-08-02T01:59:13;17.30;99.90
7762;DHT22;3925;48.636;9.516;2022-08-02T02:01:42;17.30;99.90
7762;DHT22;3925;48.636;9.516;2022-08-02T02:04:12;17.30;99.90
7762;DHT22;3925;48.636;9.516;2022-08-02T02:06:42;17.20;99.90
7762;DHT22;3925;48.636;9.516;2022-08-02T02:09:11;17.00;99.90
7762;DHT22;3925;48.636;9.516;2022-08-02T02:11:39;16.80;99.90
7762;DHT22;3925;48.636;9.516;2022-08-02T02:14:07;16.70;99.90
7762;DHT22;3925;48.636;9.516;2022-08-02T02:16:37;16.70;99.90
7762;DHT22;3925;48.636;9.516;2022-08-02T02:19:06;16.70;99.90
7762;DHT22;3925;48.636;9.516;2022-08-02T02:21:34;16.70;99.90
7762;DHT22;3925;48.636;9.516;2022-08-02T02:24:01;16.80;99.90
7762;DHT22;3925;48.636;9.516;2022-08-02T02:26:29;17.00;99.90
7762;DHT22;3925;48.636;9.516;2022-08-02T02:28:57;16.90;99.90
7762;DHT22;3925;48.636;9.516;2022-08-02T02:31:25;16.80;99.90
7762;DHT22;3925;48.636;9.516;2022-08-02T02:33:58;16.90;99.90
7762;DHT22;3925;48.636;9.516;2022-08-02T02:36:27;16.90;99.90
7762;DHT22;3925;48.636;9.516;2022-08-02T02:38:56;17.00;99.90
7762;DHT22;3925;48.636;9.516;2022-08-02T02:41:25;17.10;99.90
7762;DHT22;3925;48.636;9.516;2022-08-02T02:43:53;17.10;99.90
7762;DHT22;3925;48.636;9.516;2022-08-02T02:46:21;17.10;99.90
7762;DHT22;3925;48.636;9.516;2022-08-02T02:48:50;17.10;99.90
7762;DHT22;3925;48.636;9.516;2022-08-02T02:51:20;17.20;99.90
7762;DHT22;3925;48.636;9.516;2022-08-02T02:53:48;17.20;99.90
7762;DHT22;3925;48.636;9.516;2022-08-02T02:56:16;17.20;99.90
7762;DHT22;3925;48.636;9.516;2022-08-02T02:58:44;17.20;99.90
7762;DHT22;3925;48.636;9.516;2022-08-02T03:01:13;17.20;99.90
7762;DHT22;3925;48.636;9.516;2022-08-02T03:03:56;17.30;99.90
7762;DHT22;3925;48.636;9.516;2022-08-02T03:06:27;17.40;99.90
7762;DHT22;3925;48.636;9.516;2022-08-02T03:08:54;17.30;99.90
7762;DHT22;3925;48.636;9.516;2022-08-02T03:11:22;17.20;99.90
7762;DHT22;3925;48.636;9.516;2022-08-02T03:13:50;17.30;99.90
7762;DHT22;3925;48.636;9.516;2022-08-02T03:16:18;17.40;99.90
7762;DHT22;3925;48.636;9.516;2022-08-02T03:18:44;17.40;99.90
7762;DHT22;3925;48.636;9.516;2022-08-02T03:21:12;17.30;99.90
7762;DHT22;3925;48.636;9.516;2022-08-02T03:23:41;17.20;99.90
7762;DHT22;3925;48.636;9.516;2022-08-02T03:26:09;17.20;99.90
7762;DHT22;3925;48.636;9.516;2022-08-02T03:28:36;17.20;99.90
7762;DHT22;3925;48.636;9.516;2022-08-02T03:31:03;17.20;99.90
7762;DHT22;3925;48.636;9.516;2022-08-02T03:33:32;17.20;99.90
7762;DHT22;3925;48.636;9.516;2022-08-02T03:36:03;17.20;99.90
7762;DHT22;3925;48.636;9.516;2022-08-02T03:38:31;17.10;99.90
7762;DHT22;3925;48.636;9.516;2022-08-02T03:41:01;17.00;99.90
7762;DHT22;3925;48.636;9.516;2022-08-02T03:43:29;17.10;99.90
7762;DHT22;3925;48.636;9.516;2022-08-02T03:45:58;17.10;99.90
7762;DHT22;3925;48.636;9.516;2022-08-02T03:48:26;17.00;99.90
7762;DHT22;3925;48.636;9.516;2022-08-02T03:50:54;17.00;99.90
7762;DHT22;3925;48.636;9.516;2022-08-02T03:53:22;17.10;99.90
7762;DHT22;3925;48.636;9.516;2022-08-02T03:55:49;17.10;99.90
7762;DHT22;3925;48.636;9.516;2022-08-02T03:58:18;17.10;99.90
7762;DHT22;3925;48.636;9.516;2022-08-02T04:00:46;17.10;99.90
7762;DHT22;3925;48.636;9.516;2022-08-02T04:03:13;17.10;99.90
7762;DHT22;3925;48.636;9.516;2022-08-02T04:05:40;17.10;99.90
7762;DHT22;3925;48.636;9.516;2022-08-02T04:08:07;17.30;99.90
7762;DHT22;3925;48.636;9.516;2022-08-02T04:10:35;17.30;99.90
7762;DHT22;3925;48.636;9.516;2022-08-02T04:13:17;17.30;99.90
7762;DHT22;3925;48.636;9.516;2022-08-02T04:15:46;17.20;99.90
7762;DHT22;3925;48.636;9.516;2022-08-02T04:18:15;17.20;99.90
7762;DHT22;3925;48.636;9.516;2022-08-02T04:20:44;17.30;99.90
7762;DHT22;3925;48.636;9.516;2022-08-02T04:23:12;17.20;99.90
7762;DHT22;3925;48.636;9.516;2022-08-02T04:25:40;17.10;99.90
7762;DHT22;3925;48.636;9.516;2022-08-02T04:28:09;16.90;99.90
7762;DHT22;3925;48.636;9.516;2022-08-02T04:30:38;16.60;99.90
7762;DHT22;3925;48.636;9.516;2022-08-02T04:33:06;16.70;99.90
7762;DHT22;3925;48.636;9.516;2022-08-02T04:35:33;16.70;99.90
7762;DHT22;3925;48.636;9.516;2022-08-02T04:38:01;16.80;99.90
7762;DHT22;3925;48.636;9.516;2022-08-02T04:40:28;16.90;99.90
7762;DHT22;3925;48.636;9.516;2022-08-02T04:42:55;16.80;99.90
7762;DHT22;3925;48.636;9.516;2022-08-02T04:45:22;17.00;99.90
7762;DHT22;3925;48.636;9.516;2022-08-02T04:47:52;17.10;99.90
7762;DHT22;3925;48.636;9.516;2022-08-02T04:50:19;17.30;99.90
7762;DHT22;3925;48.636;9.516;2022-08-02T04:52:45;17.50;99.90
7762;DHT22;3925;48.636;9.516;2022-08-02T04:55:13;17.70;99.90
7762;DHT22;3925;48.636;9.516;2022-08-02T04:57:40;17.80;99.90
7762;DHT22;3925;48.636;9.516;2022-08-02T05:00:23;18.00;99.90
7762;DHT22;3925;48.636;9.516;2022-08-02T05:02:52;18.10;99.90
7762;DHT22;3925;48.636;9.516;2022-08-02T05:05:20;18.00;99.90
7762;DHT22;3925;48.636;9.516;2022-08-02T05:07:47;18.00;99.90
7762;DHT22;3925;48.636;9.516;2022-08-02T05:10:14;18.00;99.90
7762;DHT22;3925;48.636;9.516;2022-08-02T05:12:41;18.10;99.90
7762;DHT22;3925;48.636;9.516;2022-08-02T05:15:10;18.00;99.90
7762;DHT22;3925;48.636;9.516;2022-08-02T05:17:37;18.00;99.90
7762;DHT22;3925;48.636;9.516;2022-08-02T05:20:07;18.20;99.90
7762;DHT22;3925;48.636;9.516;2022-08-02T05:22:34;18.30;99.90
7762;DHT22;3925;48.636;9.516;2022-08-02T05:25:01;18.40;99.90
7762;DHT22;3925;48.636;9.516;2022-08-02T05:27:28;19.20;99.90
7762;DHT22;3925;48.636;9.516;2022-08-02T05:29:57;20.30;99.90
7762;DHT22;3925;48.636;9.516;2022-08-02T05:32:24;22.10;99.90
7762;DHT22;3925;48.636;9.516;2022-08-02T05:34:51;23.90;99.90
7762;DHT22;3925;48.636;9.516;2022-08-02T05:37:19;25.50;99.90
7762;DHT22;3925;48.636;9.516;2022-08-02T05:39:46;26.80;99.90
7762;DHT22;3925;48.636;9.516;2022-08-02T05:42:13;28.00;99.90
7762;DHT22;3925;48.636;9.516;2022-08-02T05:44:40;29.60;99.90
7762;DHT22;3925;48.636;9.516;2022-08-02T05:47:07;30.40;97.00
7762;DHT22;3925;48.636;9.516;2022-08-02T05:49:34;30.30;96.30
7762;DHT22;3925;48.636;9.516;2022-08-02T05:52:05;29.90;96.60
7762;DHT22;3925;48.636;9.516;2022-08-02T05:54:46;29.30;97.40
7762;DHT22;3925;48.636;9.516;2022-08-02T05:57:19;28.50;98.40
7762;DHT22;3925;48.636;9.516;2022-08-02T05:59:59;28.60;99.30
7762;DHT22;3925;48.636;9.516;2022-08-02T06:02:29;28.80;98.90
7762;DHT22;3925;48.636;9.516;2022-08-02T06:05:03;28.80;99.30
7762;DHT22;3925;48.636;9.516;2022-08-02T06:07:34;28.60;99.10
7762;DHT22;3925;48.636;9.516;2022-08-02T06:10:04;28.50;99.10
7762;DHT22;3925;48.636;9.516;2022-08-02T06:12:32;28.40;99.40
7762;DHT22;3925;48.636;9.516;2022-08-02T06:15:03;28.30;99.60
7762;DHT22;3925;48.636;9.516;2022-08-02T06:17:30;27.90;99.90
7762;DHT22;3925;48.636;9.516;2022-08-02T06:19:59;28.10;99.90
7762;DHT22;3925;48.636;9.516;2022-08-02T06:22:27;28.80;99.90
7762;DHT22;3925;48.636;9.516;2022-08-02T06:24:54;29.50;99.10
7762;DHT22;3925;48.636;9.516;2022-08-02T06:27:26;30.30;96.80
7762;DHT22;3925;48.636;9.516;2022-08-02T06:29:54;30.70;95.30
7762;DHT22;3925;48.636;9.516;2022-08-02T06:32:21;30.30;94.90
7762;DHT22;3925;48.636;9.516;2022-08-02T06:34:48;30.50;95.80
7762;DHT22;3925;48.636;9.516;2022-08-02T06:37:23;30.90;95.00
7762;DHT22;3925;48.636;9.516;2022-08-02T06:39:58;31.40;94.20
7762;DHT22;3925;48.636;9.516;2022-08-02T06:42:34;32.90;91.50
7762;DHT22;3925;48.636;9.516;2022-08-02T06:45:03;34.50;84.50
7762;DHT22;3925;48.636;9.516;2022-08-02T06:47:30;35.80;77.10
7762;DHT22;3925;48.636;9.516;2022-08-02T06:49:57;36.70;70.20
7762;DHT22;3925;48.636;9.516;2022-08-02T06:52:26;37.90;65.60
7762;DHT22;3925;48.636;9.516;2022-08-02T06:54:56;38.30;61.30
7762;DHT22;3925;48.636;9.516;2022-08-02T06:57:23;38.40;59.30
7762;DHT22;3925;48.636;9.516;2022-08-02T06:59:51;38.60;58.60
7762;DHT22;3925;48.636;9.516;2022-08-02T07:02:18;39.30;57.40
7762;DHT22;3925;48.636;9.516;2022-08-02T07:04:45;40.00;54.10
7762;DHT22;3925;48.636;9.516;2022-08-02T07:07:12;40.20;51.90
7762;DHT22;3925;48.636;9.516;2022-08-02T07:09:39;41.00;51.30
7762;DHT22;3925;48.636;9.516;2022-08-02T07:12:06;41.00;50.00
7762;DHT22;3925;48.636;9.516;2022-08-02T07:14:33;40.80;50.50
7762;DHT22;3925;48.636;9.516;2022-08-02T07:17:01;40.90;49.00
7762;DHT22;3925;48.636;9.516;2022-08-02T07:19:28;41.20;47.80
7762;DHT22;3925;48.636;9.516;2022-08-02T07:21:55;41.30;49.70
7762;DHT22;3925;48.636;9.516;2022-08-02T07:24:22;41.30;48.00
7762;DHT22;3925;48.636;9.516;2022-08-02T07:26:49;40.90;48.30
7762;DHT22;3925;48.636;9.516;2022-08-02T07:29:16;40.60;48.00
7762;DHT22;3925;48.636;9.516;2022-08-02T07:31:43;41.00;47.10
7762;DHT22;3925;48.636;9.516;2022-08-02T07:34:11;40.60;48.20
7762;DHT22;3925;48.636;9.516;2022-08-02T07:36:38;41.20;46.90
7762;DHT22;3925;48.636;9.516;2022-08-02T07:39:05;41.80;46.20
7762;DHT22;3925;48.636;9.516;2022-08-02T07:41:33;41.60;44.20
7762;DHT22;3925;48.636;9.516;2022-08-02T07:44:00;41.70;45.20
7762;DHT22;3925;48.636;9.516;2022-08-02T07:46:27;42.10;44.00
7762;DHT22;3925;48.636;9.516;2022-08-02T07:48:54;42.60;42.70
7762;DHT22;3925;48.636;9.516;2022-08-02T07:51:22;42.60;42.90
7762;DHT22;3925;48.636;9.516;2022-08-02T07:53:49;41.70;43.00
7762;DHT22;3925;48.636;9.516;2022-08-02T07:56:16;41.60;43.50
7762;DHT22;3925;48.636;9.516;2022-08-02T07:58:43;41.70;43.80
7762;DHT22;3925;48.636;9.516;2022-08-02T08:01:10;42.20;42.60
7762;DHT22;3925;48.636;9.516;2022-08-02T08:03:37;42.50;41.50
7762;DHT22;3925;48.636;9.516;2022-08-02T08:06:04;42.30;41.90
7762;DHT22;3925;48.636;9.516;2022-08-02T08:08:33;42.40;42.00
7762;DHT22;3925;48.636;9.516;2022-08-02T08:11:00;42.40;42.50
7762;DHT22;3925;48.636;9.516;2022-08-02T08:13:27;42.30;41.40
7762;DHT22;3925;48.636;9.516;2022-08-02T08:15:54;40.60;43.00
7762;DHT22;3925;48.636;9.516;2022-08-02T08:18:21;41.00;44.30
7762;DHT22;3925;48.636;9.516;2022-08-02T08:20:48;41.80;42.50
7762;DHT22;3925;48.636;9.516;2022-08-02T08:23:16;41.10;43.30
7762;DHT22;3925;48.636;9.516;2022-08-02T08:25:44;42.30;42.00
7762;DHT22;3925;48.636;9.516;2022-08-02T08:28:11;41.30;43.50
7762;DHT22;3925;48.636;9.516;2022-08-02T08:30:39;41.80;43.30
7762;DHT22;3925;48.636;9.516;2022-08-02T08:33:07;42.30;40.70
7762;DHT22;3925;48.636;9.516;2022-08-02T08:35:34;42.50;41.40
7762;DHT22;3925;48.636;9.516;2022-08-02T08:38:01;41.70;41.80
7762;DHT22;3925;48.636;9.516;2022-08-02T08:40:28;41.80;41.60
7762;DHT22;3925;48.636;9.516;2022-08-02T08:42:56;41.80;42.10
7762;DHT22;3925;48.636;9.516;2022-08-02T08:45:23;41.80;42.40
7762;DHT22;3925;48.636;9.516;2022-08-02T08:47:51;41.70;42.60
7762;DHT22;3925;48.636;9.516;2022-08-02T08:50:24;42.90;41.50
7762;DHT22;3925;48.636;9.516;2022-08-02T08:52:53;43.10;41.80
7762;DHT22;3925;48.636;9.516;2022-08-02T08:55:22;43.10;40.90
7762;DHT22;3925;48.636;9.516;2022-08-02T08:57:49;43.50;39.60
7762;DHT22;3925;48.636;9.516;2022-08-02T09:00:18;44.00;39.30
7762;DHT22;3925;48.636;9.516;2022-08-02T09:02:45;43.60;40.40
7762;DHT22;3925;48.636;9.516;2022-08-02T09:05:14;43.60;40.50
7762;DHT22;3925;48.636;9.516;2022-08-02T09:07:42;43.10;39.20
7762;DHT22;3925;48.636;9.516;2022-08-02T09:10:36;42.40;41.10
7762;DHT22;3925;48.636;9.516;2022-08-02T09:13:08;42.90;41.40
7762;DHT22;3925;48.636;9.516;2022-08-02T09:15:38;43.20;40.50
7762;DHT22;3925;48.636;9.516;2022-08-02T09:18:06;43.40;39.30
7762;DHT22;3925;48.636;9.516;2022-08-02T09:20:34;43.10;40.20
7762;DHT22;3925;48.636;9.516;2022-08-02T09:23:05;41.70;42.60
7762;DHT22;3925;48.636;9.516;2022-08-02T09:25:32;41.50;41.10
7762;DHT22;3925;48.636;9.516;2022-08-02T09:27:59;41.40;43.60
7762;DHT22;3925;48.636;9.516;2022-08-02T09:30:28;41.60;41.90
7762;DHT22;3925;48.636;9.516;2022-08-02T09:32:56;41.20;41.60
7762;DHT22;3925;48.636;9.516;2022-08-02T09:35:30;40.40;40.30
7762;DHT22;3925;48.636;9.516;2022-08-02T09:38:07;40.30;42.90
7762;DHT22;3925;48.636;9.516;2022-08-02T09:40:35;40.50;42.80
7762;DHT22;3925;48.636;9.516;2022-08-02T09:43:03;40.80;43.10
7762;DHT22;3925;48.636;9.516;2022-08-02T09:45:30;41.30;42.90
7762;DHT22;3925;48.636;9.516;2022-08-02T09:48:00;40.90;42.00
7762;DHT22;3925;48.636;9.516;2022-08-02T09:50:27;39.70;44.10
7762;DHT22;3925;48.636;9.516;2022-08-02T09:52:55;40.60;43.00
7762;DHT22;3925;48.636;9.516;2022-08-02T09:55:23;40.40;41.30
7762;DHT22;3925;48.636;9.516;2022-08-02T09:57:50;39.00;43.10
7762;DHT22;3925;48.636;9.516;2022-08-02T10:00:17;39.90;41.70
7762;DHT22;3925;48.636;9.516;2022-08-02T10:03:08;39.50;44.80
7762;DHT22;3925;48.636;9.516;2022-08-02T10:05:47;39.70;44.90
7762;DHT22;3925;48.636;9.516;2022-08-02T10:08:14;39.30;43.90
7762;DHT22;3925;48.636;9.516;2022-08-02T10:10:41;37.60;43.00
7762;DHT22;3925;48.636;9.516;2022-08-02T10:13:09;37.70;44.80
7762;DHT22;3925;48.636;9.516;2022-08-02T10:15:36;39.20;44.70
7762;DHT22;3925;48.636;9.516;2022-08-02T10:18:04;38.90;45.20
7762;DHT22;3925;48.636;9.516;2022-08-02T10:20:39;38.60;44.40
7762;DHT22;3925;48.636;9.516;2022-08-02T10:23:11;38.60;45.10
7762;DHT22;3925;48.636;9.516;2022-08-02T10:25:39;39.00;44.20
7762;DHT22;3925;48.636;9.516;2022-08-02T10:28:08;39.40;44.20
7762;DHT22;3925;48.636;9.516;2022-08-02T10:30:38;38.90;44.70
7762;DHT22;3925;48.636;9.516;2022-08-02T10:33:08;39.00;44.60
7762;DHT22;3925;48.636;9.516;2022-08-02T10:35:38;39.50;41.30
7762;DHT22;3925;48.636;9.516;2022-08-02T10:38:08;39.90;43.50
7762;DHT22;3925;48.636;9.516;2022-08-02T10:40:43;39.50;45.00
7762;DHT22;3925;48.636;9.516;2022-08-02T10:43:11;38.50;45.10
7762;DHT22;3925;48.636;9.516;2022-08-02T10:45:38;37.90;45.30
7762;DHT22;3925;48.636;9.516;2022-08-02T10:48:08;37.60;46.30
7762;DHT22;3925;48.636;9.516;2022-08-02T10:50:54;37.60;47.20
7762;DHT22;3925;48.636;9.516;2022-08-02T10:53:22;36.60;43.70
7762;DHT22;3925;48.636;9.516;2022-08-02T10:55:50;36.00;47.00
7762;DHT22;3925;48.636;9.516;2022-08-02T10:58:18;35.40;46.90
7762;DHT22;3925;48.636;9.516;2022-08-02T11:00:46;35.70;52.40
7762;DHT22;3925;48.636;9.516;2022-08-02T11:03:34;35.70;48.60
7762;DHT22;3925;48.636;9.516;2022-08-02T11:06:07;35.30;50.60
7762;DHT22;3925;48.636;9.516;2022-08-02T11:08:34;34.10;52.30
7762;DHT22;3925;48.636;9.516;2022-08-02T11:11:15;33.90;53.40
7762;DHT22;3925;48.636;9.516;2022-08-02T11:14:01;33.50;55.50
7762;DHT22;3925;48.636;9.516;2022-08-02T11:19:34;32.80;55.50
7762;DHT22;3925;48.636;9.516;2022-08-02T11:22:05;32.60;57.80
7762;DHT22;3925;48.636;9.516;2022-08-02T11:24:33;32.20;56.10
7762;DHT22;3925;48.636;9.516;2022-08-02T11:27:01;32.10;56.70
7762;DHT22;3925;48.636;9.516;2022-08-02T11:29:36;31.90;55.80
7762;DHT22;3925;48.636;9.516;2022-08-02T11:32:04;32.20;57.20
7762;DHT22;3925;48.636;9.516;2022-08-02T11:34:32;32.30;58.70
7762;DHT22;3925;48.636;9.516;2022-08-02T11:36:59;32.40;58.60
7762;DHT22;3925;48.636;9.516;2022-08-02T11:39:28;32.60;57.70
7762;DHT22;3925;48.636;9.516;2022-08-02T11:41:57;32.40;58.00
7762;DHT22;3925;48.636;9.516;2022-08-02T11:44:24;32.50;57.60
7762;DHT22;3925;48.636;9.516;2022-08-02T11:46:56;32.30;58.10
7762;DHT22;3925;48.636;9.516;2022-08-02T11:49:23;32.00;58.30
7762;DHT22;3925;48.636;9.516;2022-08-02T11:51:58;31.30;58.80
7762;DHT22;3925;48.636;9.516;2022-08-02T11:54:32;31.40;59.30
7762;DHT22;3925;48.636;9.516;2022-08-02T11:57:10;31.10;58.50
7762;DHT22;3925;48.636;9.516;2022-08-02T11:59:38;31.00;59.00
7762;DHT22;3925;48.636;9.516;2022-08-02T12:02:05;31.10;61.70
7762;DHT22;3925;48.636;9.516;2022-08-02T12:04:33;31.00;57.60
7762;DHT22;3925;48.636;9.516;2022-08-02T12:07:01;30.70;61.70
7762;DHT22;3925;48.636;9.516;2022-08-02T12:09:32;30.40;58.50
7762;DHT22;3925;48.636;9.516;2022-08-02T12:11:59;30.40;63.30
7762;DHT22;3925;48.636;9.516;2022-08-02T12:14:29;30.60;63.50
7762;DHT22;3925;48.636;9.516;2022-08-02T12:16:56;30.30;60.60
7762;DHT22;3925;48.636;9.516;2022-08-02T12:19:42;30.40;62.40
7762;DHT22;3925;48.636;9.516;2022-08-02T12:22:12;30.50;64.00
7762;DHT22;3925;48.636;9.516;2022-08-02T12:24:43;30.80;65.00
7762;DHT22;3925;48.636;9.516;2022-08-02T12:27:27;30.80;61.10
7762;DHT22;3925;48.636;9.516;2022-08-02T12:29:58;30.30;61.80
7762;DHT22;3925;48.636;9.516;2022-08-02T12:32:27;30.20;63.20
7762;DHT22;3925;48.636;9.516;2022-08-02T12:35:05;30.20;64.20
7762;DHT22;3925;48.636;9.516;2022-08-02T12:37:33;30.30;66.00
7762;DHT22;3925;48.636;9.516;2022-08-02T12:40:21;30.00;62.10
7762;DHT22;3925;48.636;9.516;2022-08-02T12:42:49;30.00;63.00
7762;DHT22;3925;48.636;9.516;2022-08-02T12:45:17;30.10;65.10
7762;DHT22;3925;48.636;9.516;2022-08-02T12:47:46;30.00;63.70
7762;DHT22;3925;48.636;9.516;2022-08-02T12:50:15;29.70;63.40
7762;DHT22;3925;48.636;9.516;2022-08-02T12:52:43;29.90;64.60
7762;DHT22;3925;48.636;9.516;2022-08-02T12:55:18;30.10;64.50
7762;DHT22;3925;48.636;9.516;2022-08-02T12:57:54;29.70;61.30
7762;DHT22;3925;48.636;9.516;2022-08-02T13:00:23;29.90;64.10
7762;DHT22;3925;48.636;9.516;2022-08-02T13:02:51;29.80;60.40
7762;DHT22;3925;48.636;9.516;2022-08-02T13:05:18;29.70;62.10
7762;DHT22;3925;48.636;9.516;2022-08-02T13:07:45;29.70;60.30
7762;DHT22;3925;48.636;9.516;2022-08-02T13:10:12;29.80;60.80
7762;DHT22;3925;48.636;9.516;2022-08-02T13:12:39;29.80;64.20
7762;DHT22;3925;48.636;9.516;2022-08-02T13:15:08;29.80;65.30
7762;DHT22;3925;48.636;9.516;2022-08-02T13:17:35;29.60;58.80
7762;DHT22;3925;48.636;9.516;2022-08-02T13:20:03;29.20;59.80
7762;DHT22;3925;48.636;9.516;2022-08-02T13:22:30;29.00;62.70
7762;DHT22;3925;48.636;9.516;2022-08-02T13:24:56;29.00;63.00
7762;DHT22;3925;48.636;9.516;2022-08-02T13:27:24;29.00;63.50
7762;DHT22;3925;48.636;9.516;2022-08-02T13:29:53;29.00;60.50
7762;DHT22;3925;48.636;9.516;2022-08-02T13:32:23;29.10;61.20
7762;DHT22;3925;48.636;9.516;2022-08-02T13:34:50;29.20;63.70
7762;DHT22;3925;48.636;9.516;2022-08-02T13:37:17;29.30;64.00
7762;DHT22;3925;48.636;9.516;2022-08-02T13:39:44;29.30;59.80
7762;DHT22;3925;48.636;9.516;2022-08-02T13:42:11;29.20;60.40
7762;DHT22;3925;48.636;9.516;2022-08-02T13:44:38;28.80;57.80
7762;DHT22;3925;48.636;9.516;2022-08-02T13:47:05;28.90;63.70
7762;DHT22;3925;48.636;9.516;2022-08-02T13:49:34;28.90;60.80
7762;DHT22;3925;48.636;9.516;2022-08-02T13:52:01;28.90;59.70
7762;DHT22;3925;48.636;9.516;2022-08-02T13:54:28;28.90;59.60
7762;DHT22;3925;48.636;9.516;2022-08-02T13:56:55;28.90;61.20
7762;DHT22;3925;48.636;9.516;2022-08-02T13:59:22;28.80;61.90
7762;DHT22;3925;48.636;9.516;2022-08-02T14:01:49;28.80;61.80
7762;DHT22;3925;48.636;9.516;2022-08-02T14:04:16;29.00;62.80
7762;DHT22;3925;48.636;9.516;2022-08-02T14:06:44;28.80;60.00
7762;DHT22;3925;48.636;9.516;2022-08-02T14:09:11;28.80;58.90
7762;DHT22;3925;48.636;9.516;2022-08-02T14:11:38;28.90;59.40
7762;DHT22;3925;48.636;9.516;2022-08-02T14:14:04;28.80;57.40
7762;DHT22;3925;48.636;9.516;2022-08-02T14:16:31;28.80;57.60
7762;DHT22;3925;48.636;9.516;2022-08-02T14:18:58;28.70;56.30
7762;DHT22;3925;48.636;9.516;2022-08-02T14:21:25;28.60;57.80
7762;DHT22;3925;48.636;9.516;2022-08-02T14:23:53;28.70;56.50
7762;DHT22;3925;48.636;9.516;2022-08-02T14:26:20;28.70;58.90
7762;DHT22;3925;48.636;9.516;2022-08-02T14:28:47;28.70;58.20
7762;DHT22;3925;48.636;9.516;2022-08-02T14:31:14;28.60;58.30
7762;DHT22;3925;48.636;9.516;2022-08-02T14:33:41;28.70;57.30
7762;DHT22;3925;48.636;9.516;2022-08-02T14:36:08;28.60;57.40
7762;DHT22;3925;48.636;9.516;2022-08-02T14:38:35;28.70;57.70
7762;DHT22;3925;48.636;9.516;2022-08-02T14:41:03;28.60;55.90
7762;DHT22;3925;48.636;9.516;2022-08-02T14:43:30;28.70;58.40
7762;DHT22;3925;48.636;9.516;2022-08-02T14:46:20;28.80;55.60
7762;DHT22;3925;48.636;9.516;2022-08-02T14:48:47;28.80;57.80
7762;DHT22;3925;48.636;9.516;2022-08-02T14:51:14;28.90;60.30
7762;DHT22;3925;48.636;9.516;2022-08-02T14:53:42;28.90;58.90
7762;DHT22;3925;48.636;9.516;2022-08-02T14:56:11;29.10;58.80
7762;DHT22;3925;48.636;9.516;2022-08-02T14:58:38;29.10;59.80
7762;DHT22;3925;48.636;9.516;2022-08-02T15:01:05;29.10;56.70
7762;DHT22;3925;48.636;9.516;2022-08-02T15:03:32;29.10;59.40
7762;DHT22;3925;48.636;9.516;2022-08-02T15:05:59;29.00;58.70
7762;DHT22;3925;48.636;9.516;2022-08-02T15:08:25;28.90;57.90
7762;DHT22;3925;48.636;9.516;2022-08-02T15:10:52;29.00;59.70
7762;DHT22;3925;48.636;9.516;2022-08-02T15:13:21;29.00;57.90
7762;DHT22;3925;48.636;9.516;2022-08-02T15:15:49;29.00;57.50
7762;DHT22;3925;48.636;9.516;2022-08-02T15:18:16;28.90;55.60
7762;DHT22;3925;48.636;9.516;2022-08-02T15:20:43;28.80;56.30
7762;DHT22;3925;48.636;9.516;2022-08-02T15:23:11;28.90;58.10
7762;DHT22;3925;48.636;9.516;2022-08-02T15:25:38;28.90;58.80
7762;DHT22;3925;48.636;9.516;2022-08-02T15:28:06;28.90;58.60
7762;DHT22;3925;48.636;9.516;2022-08-02T15:30:35;28.80;58.30
7762;DHT22;3925;48.636;9.516;2022-08-02T15:33:03;28.90;59.50
7762;DHT22;3925;48.636;9.516;2022-08-02T15:35:31;28.80;59.10
7762;DHT22;3925;48.636;9.516;2022-08-02T15:37:58;28.80;58.40
7762;DHT22;3925;48.636;9.516;2022-08-02T15:40:25;28.80;60.30
7762;DHT22;3925;48.636;9.516;2022-08-02T15:42:52;28.80;62.30
7762;DHT22;3925;48.636;9.516;2022-08-02T15:45:19;28.80;61.10
7762;DHT22;3925;48.636;9.516;2022-08-02T15:47:48;28.70;59.80
7762;DHT22;3925;48.636;9.516;2022-08-02T15:50:15;28.70;60.50
7762;DHT22;3925;48.636;9.516;2022-08-02T15:52:42;28.70;59.10
7762;DHT22;3925;48.636;9.516;2022-08-02T15:55:08;28.60;59.00
7762;DHT22;3925;48.636;9.516;2022-08-02T15:57:36;28.60;59.40
7762;DHT22;3925;48.636;9.516;2022-08-02T16:00:05;28.70;60.60
7762;DHT22;3925;48.636;9.516;2022-08-02T16:02:33;28.70;59.70
7762;DHT22;3925;48.636;9.516;2022-08-02T16:05:02;28.60;57.90
7762;DHT22;3925;48.636;9.516;2022-08-02T16:07:29;28.60;57.70
7762;DHT22;3925;48.636;9.516;2022-08-02T16:09:55;28.60;58.10
7762;DHT22;3925;48.636;9.516;2022-08-02T16:12:22;28.50;58.20
7762;DHT22;3925;48.636;9.516;2022-08-02T16:14:49;28.50;57.70
7762;DHT22;3925;48.636;9.516;2022-08-02T16:17:16;28.40;56.60